Stations météo

réclame
Mon MeteoGroup
Mont Aigoual, France (7560): Température de l'air & dewpoint: 17.04.2018 00:00:00 - 23.04.2018 00:00:00 (CEST)Mont Aigoual, France (7560): Vitesse du vent & gusts: 17.04.2018 00:00:00 - 23.04.2018 00:00:00 (CEST)Mont Aigoual, France (7560): Direction du vent: 17.04.2018 00:00:00 - 23.04.2018 00:00:00 (CEST)Mont Aigoual, France (7560): visibility: 17.04.2018 00:00:00 - 23.04.2018 00:00:00 (CEST)Mont Aigoual, France (7560): Quantités de précipitations: 17.04.2018 00:00:00 - 23.04.2018 00:00:00 (CEST)
Date & Time tt [°C] td [°C] ff [km/h] ff [knt] fx [km/h] fx [knt] dd vv [km] rr [mm]
23.04.2018 00:00:00 - - - - - - - - -
22.04.2018 23:00:00 9,7 -0,5 28 15 36 19 S 20 0,0
22.04.2018 22:00:00 9,9 -0,6 26 14 33 18 S 20 0,0
22.04.2018 21:00:00 10,2 -0,1 25 13 32 18 S 20 0,0
22.04.2018 20:00:00 10,5 2,6 26 14 35 19 S 20 0,0
22.04.2018 19:00:00 11,6 3,1 23 13 47 26 S 20 0,0
22.04.2018 18:00:00 12,3 3,5 27 15 51 28 S 20 0,0
22.04.2018 17:00:00 13,0 3,4 26 14 41 22 S 20 0,0
22.04.2018 16:00:00 14,8 3,6 22 12 40 22 S 20 0,0
22.04.2018 15:00:00 14,4 3,2 23 13 48 26 S 20 0,0
22.04.2018 14:00:00 13,8 3,0 27 14 49 26 S 20 0,0
22.04.2018 13:00:00 13,7 2,6 26 14 44 24 S 20 0,0
22.04.2018 12:00:00 12,8 1,5 26 14 42 23 S 20 0,0
22.04.2018 11:00:00 11,7 1,3 25 13 37 20 S 20 0,0
22.04.2018 10:00:00 10,9 0,9 30 16 37 20 S 20 0,0
22.04.2018 09:00:00 10,0 0,3 29 16 43 23 S 20 0,0
22.04.2018 08:00:00 9,2 -0,7 29 15 36 19 S 20 0,0
22.04.2018 07:00:00 8,7 -0,6 26 14 47 26 S 20 0,0
22.04.2018 06:00:00 8,7 -0,6 39 21 52 28 S 20 0,0
22.04.2018 05:00:00 9,0 -0,6 42 23 61 33 S 20 0,0
22.04.2018 04:00:00 9,7 0,0 42 23 57 31 S 20 0,0
22.04.2018 03:00:00 9,4 -0,2 30 16 48 26 S 20 0,0
22.04.2018 02:00:00 9,9 -0,6 37 20 49 27 S 20 0,0
22.04.2018 01:00:00 10,0 -1,1 35 19 41 22 S 20 0,0
22.04.2018 00:00:00 10,5 -0,6 35 19 41 22 S 20 0,0
21.04.2018 23:00:00 11,2 -2,3 31 17 50 27 S 20 0,0
21.04.2018 22:00:00 11,6 -0,9 36 20 48 26 S 20 0,0
21.04.2018 21:00:00 11,7 1,3 27 15 40 21 S 20 0,0
21.04.2018 20:00:00 12,6 1,6 34 18 49 26 S 20 0,0
21.04.2018 19:00:00 13,8 2,4 31 17 54 29 S 20 0,0
21.04.2018 18:00:00 14,5 2,1 36 20 67 36 S 20 0,0
21.04.2018 17:00:00 15,1 3,2 31 17 65 35 S 20 0,0
21.04.2018 16:00:00 15,2 3,0 36 19 72 39 S 20 0,0
21.04.2018 15:00:00 15,1 4,2 29 16 64 34 S 20 0,0
21.04.2018 14:00:00 15,3 4,3 30 16 65 35 S 20 0,0
21.04.2018 13:00:00 14,6 3,7 35 19 62 33 S 20 0,0
21.04.2018 12:00:00 14,1 3,2 34 18 60 32 S 20 0,0
21.04.2018 11:00:00 13,3 2,8 31 17 48 26 S 20 0,0
21.04.2018 10:00:00 12,2 1,5 26 14 47 26 SSE 20 0,0
21.04.2018 09:00:00 11,1 1,6 28 15 46 25 S 20 0,0
21.04.2018 08:00:00 10,3 1,4 32 17 44 24 SSE 20 0,0
21.04.2018 07:00:00 10,3 0,0 35 19 49 26 SSE 20 0,0
21.04.2018 06:00:00 10,3 0,6 31 17 42 23 S 20 0,0
21.04.2018 05:00:00 10,4 2,0 27 15 37 20 S 20 0,0
21.04.2018 04:00:00 10,6 0,3 29 15 37 20 SSE 20 0,0
21.04.2018 03:00:00 10,6 1,7 29 16 36 19 SSE 20 0,0
21.04.2018 02:00:00 10,7 3,0 25 13 34 19 S 20 0,0
21.04.2018 01:00:00 10,8 3,1 23 12 35 19 S 20 0,0
21.04.2018 00:00:00 11,0 3,0 25 13 35 19 S 20 0,0
20.04.2018 23:00:00 11,0 2,3 23 12 29 16 SSE 20 0,0
20.04.2018 22:00:00 11,2 1,7 18 10 24 13 SE 20 0,0
20.04.2018 21:00:00 10,8 1,9 10 6 20 11 SSE 20 0,0
20.04.2018 20:00:00 11,7 2,7 14 7 34 18 S 20 0,0
20.04.2018 19:00:00 13,5 2,4 23 12 36 19 S 20 0,0
20.04.2018 18:00:00 14,8 3,0 22 12 39 21 S 20 0,0
20.04.2018 17:00:00 15,1 3,6 21 12 45 24 S 20 0,0
20.04.2018 16:00:00 15,0 3,2 22 12 45 25 S 20 0,0
20.04.2018 15:00:00 15,1 3,9 21 12 44 24 S 20 0,0
20.04.2018 14:00:00 14,6 3,4 26 14 49 26 S 20 0,0
20.04.2018 13:00:00 13,9 2,8 27 14 45 24 S 20 0,0
20.04.2018 12:00:00 13,6 3,1 23 13 45 24 S 20 0,0
20.04.2018 11:00:00 12,5 3,2 21 11 39 21 S 20 0,0
20.04.2018 10:00:00 11,3 3,1 19 11 29 16 S 20 0,0
20.04.2018 09:00:00 10,0 2,1 13 7 29 16 S 20 0,0
20.04.2018 08:00:00 9,2 1,6 18 10 37 20 S 20 0,0
20.04.2018 07:00:00 8,8 1,5 23 12 31 17 S 20 0,0
20.04.2018 06:00:00 9,0 1,2 23 13 45 24 S 20 0,0
20.04.2018 05:00:00 9,3 1,2 34 18 55 30 S 20 0,0
20.04.2018 04:00:00 9,0 1,2 33 18 48 26 S 20 0,0
20.04.2018 03:00:00 9,1 1,3 34 18 50 27 S 20 0,0
20.04.2018 02:00:00 9,3 2,2 32 17 47 26 S 20 0,0
20.04.2018 01:00:00 9,5 2,8 34 18 49 26 S 20 0,0
20.04.2018 00:00:00 9,9 1,8 27 15 37 20 S 20 0,0
19.04.2018 23:00:00 10,5 -0,6 17 9 29 16 SSE 20 0,0
19.04.2018 22:00:00 10,8 0,2 17 9 25 13 ESE 20 0,0
19.04.2018 21:00:00 10,9 0,0 14 8 18 10 E 20 0,0
19.04.2018 20:00:00 10,9 1,4 13 7 24 13 SSW 20 0,0
19.04.2018 19:00:00 12,0 1,0 19 10 31 17 S 20 0,0
19.04.2018 18:00:00 13,2 1,2 23 12 44 24 S 20 0,0
19.04.2018 17:00:00 13,4 1,7 19 10 54 29 SSW 20 0,0
19.04.2018 16:00:00 13,2 0,9 33 18 72 39 S 20 0,0
19.04.2018 15:00:00 13,2 0,6 36 19 73 39 S 20 0,0
19.04.2018 14:00:00 12,5 1,5 36 19 76 41 S 20 0,0
19.04.2018 13:00:00 11,8 2,3 43 23 74 40 S 20 0,0
19.04.2018 12:00:00 11,1 -0,4 49 26 84 45 S 20 0,0
19.04.2018 11:00:00 10,5 2,1 48 26 75 41 S 20 0,0
19.04.2018 10:00:00 9,5 3,5 38 20 55 30 S 20 0,0
19.04.2018 09:00:00 8,5 3,3 37 20 54 29 S 20 0,0
19.04.2018 08:00:00 7,8 3,5 35 19 45 24 S 20 0,0
19.04.2018 07:00:00 7,6 3,3 35 19 45 25 S 20 0,0
19.04.2018 06:00:00 7,7 3,2 31 17 47 26 S 20 0,0
19.04.2018 05:00:00 7,7 3,0 33 18 47 26 S 20 0,0
19.04.2018 04:00:00 8,0 2,7 36 19 54 29 S 20 0,0
19.04.2018 03:00:00 8,4 2,4 32 17 52 28 S 20 0,0
19.04.2018 02:00:00 8,4 2,2 25 13 50 27 S 20 0,0
19.04.2018 01:00:00 8,3 1,9 33 18 52 28 SSW 20 0,0
19.04.2018 00:00:00 8,5 1,2 31 17 46 25 SSW 20 0,0
18.04.2018 23:00:00 8,8 1,2 23 12 31 17 SSW 20 0,0
18.04.2018 22:00:00 9,7 2,3 16 9 29 16 SSW 20 0,0
18.04.2018 21:00:00 10,1 2,4 23 12 39 21 S 20 0,0
18.04.2018 20:00:00 10,7 2,5 24 13 37 20 SSW 20 0,0
18.04.2018 19:00:00 11,1 4,5 26 14 43 23 S 20 0,0
18.04.2018 18:00:00 11,6 4,8 33 18 57 31 S 20 0,0
18.04.2018 17:00:00 13,0 5,2 36 19 55 30 S 20 0,0
18.04.2018 16:00:00 12,8 5,5 33 18 60 33 S 20 0,0
18.04.2018 15:00:00 12,5 6,1 36 20 64 35 S 20 0,0
18.04.2018 14:00:00 12,4 6,0 39 21 67 36 S 20 -
18.04.2018 13:00:00 12,5 5,9 40 22 74 40 S 20 0,0
18.04.2018 12:00:00 12,2 5,1 37 20 64 35 S 20 0,0
18.04.2018 11:00:00 11,1 4,1 29 16 48 26 SSE 20 0,0
18.04.2018 10:00:00 10,8 4,5 17 9 29 16 ESE 20 0,0
18.04.2018 09:00:00 9,8 4,8 15 8 32 17 ENE 20 0,0
18.04.2018 08:00:00 9,0 4,2 24 13 39 21 NE 20 0,0
18.04.2018 07:00:00 8,6 4,2 27 14 40 22 NE 20 0,0
18.04.2018 06:00:00 8,5 3,5 23 13 32 17 NE 20 0,0
18.04.2018 05:00:00 8,5 3,5 16 9 30 16 ENE 20 0,0
18.04.2018 04:00:00 8,9 2,0 13 7 19 10 NE 20 0,0
18.04.2018 03:00:00 9,2 2,7 10 5 20 11 ESE 20 0,0
18.04.2018 02:00:00 9,3 3,3 15 8 21 12 ESE 14 0,0
18.04.2018 01:00:00 9,6 3,3 14 8 23 12 SE 20 0,0
18.04.2018 00:00:00 9,6 2,7 16 9 22 12 SE 20 0,0
17.04.2018 23:00:00 9,9 3,6 16 9 21 11 ESE 12 0,0
17.04.2018 22:00:00 10,6 2,2 16 8 21 11 E 13 0,0
17.04.2018 21:00:00 11,2 2,2 15 8 21 11 SSE 20 0,0
17.04.2018 20:00:00 12,2 3,2 15 8 30 16 S 20 0,0
17.04.2018 19:00:00 13,8 4,1 12 6 35 19 S 20 0,0
17.04.2018 18:00:00 14,7 3,8 20 11 35 19 S 20 0,0
17.04.2018 17:00:00 15,1 3,9 17 9 33 18 S 20 0,0
17.04.2018 16:00:00 14,4 3,2 13 7 38 20 S 20 0,0
17.04.2018 15:00:00 14,3 3,1 14 8 31 17 S 19 0,0
17.04.2018 14:00:00 13,3 3,1 7 4 28 15 SW 20 0,0
17.04.2018 13:00:00 11,6 2,3 10 5 27 15 S 20 0,0
17.04.2018 12:00:00 10,7 0,7 10 6 31 17 NNE 20 0,0
17.04.2018 11:00:00 9,5 -0,1 18 10 35 19 NNE 20 0,0
17.04.2018 10:00:00 8,8 -1,3 18 10 29 15 NNE 20 0,0
17.04.2018 09:00:00 7,7 -1,3 21 11 31 17 NNE 20 0,0
17.04.2018 08:00:00 6,4 -1,0 24 13 50 27 N 20 0,0
17.04.2018 07:00:00 5,2 -0,8 41 22 53 28 N 20 0,0
17.04.2018 06:00:00 5,0 -1,0 39 21 48 26 N 20 0,0
17.04.2018 05:00:00 4,9 -1,6 34 18 50 27 N 20 0,0
17.04.2018 04:00:00 5,1 -1,4 30 16 47 25 N 20 0,0
17.04.2018 03:00:00 3,6 1,0 32 17 56 30 N 20 0,0
17.04.2018 02:00:00 5,6 -0,7 48 26 62 33 N 20 0,0
17.04.2018 01:00:00 5,0 1,1 45 24 66 36 N 20 0,0
17.04.2018 00:00:00 4,6 2,6 51 27 67 36 N 20 0,0

tt = Température de l'air
td = dewpoint
ff = Vitesse du vent
fx = gusts
dd = Direction du vent
vv = visibility
rr = Quantités de précipitations

stations d'obs. à proximité